sensor_id;sensor_type;location;lat;lon;timestamp;P1;durP1;ratioP1;P2;durP2;ratioP2
60973;SDS011;46846;51.528;5.076;2023-12-20T00:01:31;755.95;;;716.75;;
60973;SDS011;46846;51.528;5.076;2023-12-20T00:03:56;730.65;;;693.40;;
60973;SDS011;46846;51.528;5.076;2023-12-20T00:08:47;737.13;;;699.53;;
60973;SDS011;46846;51.528;5.076;2023-12-20T00:11:12;708.95;;;673.05;;
60973;SDS011;46846;51.528;5.076;2023-12-20T00:13:38;749.78;;;711.33;;
60973;SDS011;46846;51.528;5.076;2023-12-20T00:16:03;745.45;;;707.35;;
60973;SDS011;46846;51.528;5.076;2023-12-20T00:23:19;684.47;;;650.10;;
60973;SDS011;46846;51.528;5.076;2023-12-20T00:28:10;720.47;;;683.67;;
60973;SDS011;46846;51.528;5.076;2023-12-20T00:30:35;699.83;;;664.30;;
60973;SDS011;46846;51.528;5.076;2023-12-20T00:35:27;699.53;;;663.72;;
60973;SDS011;46846;51.528;5.076;2023-12-20T00:37:52;718.13;;;681.88;;
60973;SDS011;46846;51.528;5.076;2023-12-20T00:40:18;742.70;;;704.35;;
60973;SDS011;46846;51.528;5.076;2023-12-20T00:42:43;719.85;;;683.40;;
60973;SDS011;46846;51.528;5.076;2023-12-20T00:45:10;746.60;;;707.95;;
60973;SDS011;46846;51.528;5.076;2023-12-20T00:47:35;730.15;;;692.63;;
60973;SDS011;46846;51.528;5.076;2023-12-20T00:52:26;726.50;;;689.63;;
60973;SDS011;46846;51.528;5.076;2023-12-20T00:54:52;709.00;;;673.15;;
60973;SDS011;46846;51.528;5.076;2023-12-20T00:59:42;706.00;;;670.58;;
60973;SDS011;46846;51.528;5.076;2023-12-20T01:04:34;709.35;;;673.60;;
60973;SDS011;46846;51.528;5.076;2023-12-20T01:06:59;723.88;;;687.25;;
60973;SDS011;46846;51.528;5.076;2023-12-20T01:09:25;718.97;;;682.63;;
60973;SDS011;46846;51.528;5.076;2023-12-20T01:11:52;720.53;;;684.03;;
60973;SDS011;46846;51.528;5.076;2023-12-20T01:14:18;743.72;;;705.75;;
60973;SDS011;46846;51.528;5.076;2023-12-20T01:16:43;716.20;;;680.05;;
60973;SDS011;46846;51.528;5.076;2023-12-20T01:19:09;743.42;;;705.60;;
60973;SDS011;46846;51.528;5.076;2023-12-20T01:21:34;724.08;;;687.00;;
60973;SDS011;46846;51.528;5.076;2023-12-20T01:24:00;746.38;;;708.28;;
60973;SDS011;46846;51.528;5.076;2023-12-20T01:26:25;727.60;;;690.70;;
60973;SDS011;46846;51.528;5.076;2023-12-20T01:31:16;714.40;;;678.00;;
60973;SDS011;46846;51.528;5.076;2023-12-20T01:36:06;720.27;;;683.17;;
60973;SDS011;46846;51.528;5.076;2023-12-20T01:38:32;732.28;;;694.92;;
60973;SDS011;46846;51.528;5.076;2023-12-20T01:40:58;705.55;;;669.28;;
60973;SDS011;46846;51.528;5.076;2023-12-20T01:43:24;711.03;;;674.80;;
60973;SDS011;46846;51.528;5.076;2023-12-20T01:48:15;726.07;;;689.37;;
60973;SDS011;46846;51.528;5.076;2023-12-20T01:50:41;707.00;;;670.97;;
60973;SDS011;46846;51.528;5.076;2023-12-20T01:53:09;715.40;;;679.35;;
60973;SDS011;46846;51.528;5.076;2023-12-20T01:55:38;731.05;;;693.90;;
60973;SDS011;46846;51.528;5.076;2023-12-20T01:58:04;720.55;;;682.65;;
60973;SDS011;46846;51.528;5.076;2023-12-20T02:02:56;699.03;;;663.92;;
60973;SDS011;46846;51.528;5.076;2023-12-20T02:05:25;722.75;;;685.65;;
60973;SDS011;46846;51.528;5.076;2023-12-20T02:07:52;730.10;;;693.13;;
60973;SDS011;46846;51.528;5.076;2023-12-20T02:10:18;720.70;;;684.28;;
60973;SDS011;46846;51.528;5.076;2023-12-20T02:12:43;719.28;;;682.60;;
60973;SDS011;46846;51.528;5.076;2023-12-20T02:15:09;714.08;;;677.45;;
60973;SDS011;46846;51.528;5.076;2023-12-20T02:17:35;746.38;;;708.15;;
60973;SDS011;46846;51.528;5.076;2023-12-20T02:20:01;740.08;;;702.17;;
60973;SDS011;46846;51.528;5.076;2023-12-20T02:22:27;729.58;;;692.25;;
60973;SDS011;46846;51.528;5.076;2023-12-20T02:24:52;739.40;;;701.78;;
60973;SDS011;46846;51.528;5.076;2023-12-20T02:27:18;706.97;;;671.10;;
60973;SDS011;46846;51.528;5.076;2023-12-20T02:29:44;719.17;;;682.50;;
60973;SDS011;46846;51.528;5.076;2023-12-20T02:32:12;736.60;;;699.13;;
60973;SDS011;46846;51.528;5.076;2023-12-20T02:34:38;723.88;;;686.80;;
60973;SDS011;46846;51.528;5.076;2023-12-20T02:37:03;735.50;;;698.05;;
60973;SDS011;46846;51.528;5.076;2023-12-20T02:41:54;709.30;;;673.50;;
60973;SDS011;46846;51.528;5.076;2023-12-20T02:44:19;730.65;;;692.13;;
60973;SDS011;46846;51.528;5.076;2023-12-20T02:46:44;725.50;;;688.35;;
60973;SDS011;46846;51.528;5.076;2023-12-20T02:49:10;717.38;;;681.05;;
60973;SDS011;46846;51.528;5.076;2023-12-20T02:51:35;731.53;;;693.28;;
60973;SDS011;46846;51.528;5.076;2023-12-20T02:54:03;744.97;;;706.75;;
60973;SDS011;46846;51.528;5.076;2023-12-20T02:56:29;733.60;;;696.33;;
60973;SDS011;46846;51.528;5.076;2023-12-20T02:58:54;710.67;;;674.78;;
60973;SDS011;46846;51.528;5.076;2023-12-20T03:01:20;711.47;;;675.08;;
60973;SDS011;46846;51.528;5.076;2023-12-20T03:03:45;736.65;;;699.20;;
60973;SDS011;46846;51.528;5.076;2023-12-20T03:06:10;722.00;;;684.85;;
60973;SDS011;46846;51.528;5.076;2023-12-20T03:08:36;708.70;;;671.30;;
60973;SDS011;46846;51.528;5.076;2023-12-20T03:11:02;704.13;;;668.05;;
60973;SDS011;46846;51.528;5.076;2023-12-20T03:15:52;687.73;;;653.37;;
60973;SDS011;46846;51.528;5.076;2023-12-20T03:18:18;689.50;;;654.95;;
60973;SDS011;46846;51.528;5.076;2023-12-20T03:20:43;718.78;;;682.05;;
60973;SDS011;46846;51.528;5.076;2023-12-20T03:25:34;688.07;;;653.70;;
60973;SDS011;46846;51.528;5.076;2023-12-20T03:27:59;713.28;;;676.80;;
60973;SDS011;46846;51.528;5.076;2023-12-20T03:30:25;682.80;;;648.17;;
60973;SDS011;46846;51.528;5.076;2023-12-20T03:32:51;710.00;;;674.15;;
60973;SDS011;46846;51.528;5.076;2023-12-20T03:35:16;721.25;;;684.25;;
60973;SDS011;46846;51.528;5.076;2023-12-20T03:37:42;729.20;;;691.72;;
60973;SDS011;46846;51.528;5.076;2023-12-20T03:40:07;725.50;;;687.70;;
60973;SDS011;46846;51.528;5.076;2023-12-20T03:42:33;736.40;;;698.65;;
60973;SDS011;46846;51.528;5.076;2023-12-20T03:47:23;681.73;;;647.47;;
60973;SDS011;46846;51.528;5.076;2023-12-20T03:49:49;722.45;;;685.65;;
60973;SDS011;46846;51.528;5.076;2023-12-20T03:52:14;698.10;;;662.67;;
60973;SDS011;46846;51.528;5.076;2023-12-20T03:54:40;724.50;;;687.95;;
60973;SDS011;46846;51.528;5.076;2023-12-20T03:57:07;694.17;;;659.22;;
60973;SDS011;46846;51.528;5.076;2023-12-20T03:59:36;695.03;;;659.35;;
60973;SDS011;46846;51.528;5.076;2023-12-20T04:02:03;694.35;;;659.15;;
60973;SDS011;46846;51.528;5.076;2023-12-20T04:06:54;683.63;;;649.40;;
60973;SDS011;46846;51.528;5.076;2023-12-20T04:09:19;701.28;;;665.67;;
60973;SDS011;46846;51.528;5.076;2023-12-20T04:11:44;704.22;;;667.47;;
60973;SDS011;46846;51.528;5.076;2023-12-20T04:14:10;717.97;;;681.05;;
60973;SDS011;46846;51.528;5.076;2023-12-20T04:19:01;693.70;;;659.07;;
60973;SDS011;46846;51.528;5.076;2023-12-20T04:21:27;671.35;;;637.58;;
60973;SDS011;46846;51.528;5.076;2023-12-20T04:23:52;711.70;;;675.38;;
60973;SDS011;46846;51.528;5.076;2023-12-20T04:26:17;697.78;;;662.38;;
60973;SDS011;46846;51.528;5.076;2023-12-20T04:28:43;695.97;;;660.65;;
60973;SDS011;46846;51.528;5.076;2023-12-20T04:31:08;697.77;;;662.67;;
60973;SDS011;46846;51.528;5.076;2023-12-20T04:33:33;690.53;;;655.17;;
60973;SDS011;46846;51.528;5.076;2023-12-20T04:35:59;696.83;;;661.80;;
60973;SDS011;46846;51.528;5.076;2023-12-20T04:38:25;716.47;;;680.00;;
60973;SDS011;46846;51.528;5.076;2023-12-20T04:40:51;700.40;;;664.05;;
60973;SDS011;46846;51.528;5.076;2023-12-20T04:43:16;734.78;;;696.22;;
60973;SDS011;46846;51.528;5.076;2023-12-20T04:45:42;726.53;;;688.95;;
60973;SDS011;46846;51.528;5.076;2023-12-20T04:48:08;719.08;;;682.50;;
60973;SDS011;46846;51.528;5.076;2023-12-20T04:50:33;728.17;;;690.00;;
60973;SDS011;46846;51.528;5.076;2023-12-20T04:52:58;700.08;;;664.47;;
60973;SDS011;46846;51.528;5.076;2023-12-20T04:55:24;727.85;;;690.80;;
60973;SDS011;46846;51.528;5.076;2023-12-20T04:57:49;723.67;;;686.50;;
60973;SDS011;46846;51.528;5.076;2023-12-20T05:00:14;696.05;;;660.47;;
60973;SDS011;46846;51.528;5.076;2023-12-20T05:02:40;688.10;;;653.60;;
60973;SDS011;46846;51.528;5.076;2023-12-20T05:05:06;720.60;;;684.05;;
60973;SDS011;46846;51.528;5.076;2023-12-20T05:09:58;697.00;;;662.15;;
60973;SDS011;46846;51.528;5.076;2023-12-20T05:12:23;694.92;;;660.20;;
60973;SDS011;46846;51.528;5.076;2023-12-20T05:14:49;719.13;;;682.83;;
60973;SDS011;46846;51.528;5.076;2023-12-20T05:17:14;714.15;;;678.28;;
60973;SDS011;46846;51.528;5.076;2023-12-20T05:19:40;709.83;;;673.58;;
60973;SDS011;46846;51.528;5.076;2023-12-20T05:22:05;703.65;;;668.08;;
60973;SDS011;46846;51.528;5.076;2023-12-20T05:24:31;712.50;;;676.42;;
60973;SDS011;46846;51.528;5.076;2023-12-20T05:29:21;688.43;;;654.10;;
60973;SDS011;46846;51.528;5.076;2023-12-20T05:31:47;684.78;;;650.63;;
60973;SDS011;46846;51.528;5.076;2023-12-20T05:34:12;707.28;;;671.80;;
60973;SDS011;46846;51.528;5.076;2023-12-20T05:36:37;713.58;;;676.75;;
60973;SDS011;46846;51.528;5.076;2023-12-20T05:41:29;665.65;;;632.67;;
60973;SDS011;46846;51.528;5.076;2023-12-20T05:43:55;676.65;;;642.88;;
60973;SDS011;46846;51.528;5.076;2023-12-20T05:46:22;682.10;;;647.65;;
60973;SDS011;46846;51.528;5.076;2023-12-20T05:48:48;700.55;;;665.50;;
60973;SDS011;46846;51.528;5.076;2023-12-20T05:51:14;715.47;;;678.60;;
60973;SDS011;46846;51.528;5.076;2023-12-20T05:53:39;715.00;;;678.83;;
60973;SDS011;46846;51.528;5.076;2023-12-20T05:56:05;714.78;;;678.42;;
60973;SDS011;46846;51.528;5.076;2023-12-20T05:58:31;720.40;;;684.05;;
60973;SDS011;46846;51.528;5.076;2023-12-20T06:00:57;696.67;;;661.47;;
60973;SDS011;46846;51.528;5.076;2023-12-20T06:03:22;714.90;;;678.53;;
60973;SDS011;46846;51.528;5.076;2023-12-20T06:05:48;721.13;;;684.78;;
60973;SDS011;46846;51.528;5.076;2023-12-20T06:10:39;695.30;;;660.55;;
60973;SDS011;46846;51.528;5.076;2023-12-20T06:13:05;702.83;;;667.35;;
60973;SDS011;46846;51.528;5.076;2023-12-20T06:15:31;682.03;;;647.67;;
60973;SDS011;46846;51.528;5.076;2023-12-20T06:17:57;712.83;;;676.40;;
60973;SDS011;46846;51.528;5.076;2023-12-20T06:20:22;713.20;;;677.03;;
60973;SDS011;46846;51.528;5.076;2023-12-20T06:22:48;692.28;;;657.55;;
60973;SDS011;46846;51.528;5.076;2023-12-20T06:25:13;691.92;;;657.38;;
60973;SDS011;46846;51.528;5.076;2023-12-20T06:27:39;693.80;;;659.03;;
60973;SDS011;46846;51.528;5.076;2023-12-20T06:30:06;702.15;;;666.83;;
60973;SDS011;46846;51.528;5.076;2023-12-20T06:32:34;712.17;;;675.90;;
60973;SDS011;46846;51.528;5.076;2023-12-20T06:34:59;687.22;;;652.92;;
60973;SDS011;46846;51.528;5.076;2023-12-20T06:37:25;718.72;;;682.45;;
60973;SDS011;46846;51.528;5.076;2023-12-20T06:39:50;715.95;;;679.95;;
60973;SDS011;46846;51.528;5.076;2023-12-20T06:42:15;683.63;;;648.53;;
60973;SDS011;46846;51.528;5.076;2023-12-20T06:44:41;715.25;;;679.20;;
60973;SDS011;46846;51.528;5.076;2023-12-20T06:49:32;688.00;;;652.90;;
60973;SDS011;46846;51.528;5.076;2023-12-20T06:51:57;697.05;;;661.97;;
60973;SDS011;46846;51.528;5.076;2023-12-20T06:56:48;682.93;;;648.40;;
60973;SDS011;46846;51.528;5.076;2023-12-20T06:59:14;690.33;;;655.92;;
60973;SDS011;46846;51.528;5.076;2023-12-20T07:01:39;703.22;;;667.40;;
60973;SDS011;46846;51.528;5.076;2023-12-20T07:04:04;689.90;;;654.92;;
60973;SDS011;46846;51.528;5.076;2023-12-20T07:06:30;675.25;;;641.60;;
60973;SDS011;46846;51.528;5.076;2023-12-20T07:08:55;667.85;;;634.50;;
60973;SDS011;46846;51.528;5.076;2023-12-20T07:11:20;667.55;;;634.33;;
60973;SDS011;46846;51.528;5.076;2023-12-20T07:13:46;666.28;;;632.90;;
60973;SDS011;46846;51.528;5.076;2023-12-20T07:16:11;667.97;;;634.25;;
60973;SDS011;46846;51.528;5.076;2023-12-20T07:18:38;697.85;;;661.88;;
60973;SDS011;46846;51.528;5.076;2023-12-20T07:21:03;673.65;;;640.05;;
60973;SDS011;46846;51.528;5.076;2023-12-20T07:23:29;679.83;;;644.42;;
60973;SDS011;46846;51.528;5.076;2023-12-20T07:25:54;669.72;;;636.50;;
60973;SDS011;46846;51.528;5.076;2023-12-20T07:28:20;695.05;;;660.35;;
60973;SDS011;46846;51.528;5.076;2023-12-20T07:30:45;704.05;;;668.42;;
60973;SDS011;46846;51.528;5.076;2023-12-20T07:33:11;679.45;;;645.35;;
60973;SDS011;46846;51.528;5.076;2023-12-20T07:38:02;689.47;;;655.15;;
60973;SDS011;46846;51.528;5.076;2023-12-20T07:40:28;659.22;;;625.45;;
60973;SDS011;46846;51.528;5.076;2023-12-20T07:42:53;666.00;;;632.65;;
60973;SDS011;46846;51.528;5.076;2023-12-20T07:45:19;666.45;;;633.17;;
60973;SDS011;46846;51.528;5.076;2023-12-20T07:47:44;698.25;;;663.15;;
60973;SDS011;46846;51.528;5.076;2023-12-20T07:50:10;670.90;;;636.95;;
60973;SDS011;46846;51.528;5.076;2023-12-20T07:52:35;675.67;;;641.78;;
60973;SDS011;46846;51.528;5.076;2023-12-20T07:55:01;667.05;;;633.25;;
60973;SDS011;46846;51.528;5.076;2023-12-20T07:57:28;669.58;;;636.25;;
60973;SDS011;46846;51.528;5.076;2023-12-20T07:59:54;702.70;;;666.83;;
60973;SDS011;46846;51.528;5.076;2023-12-20T08:02:20;706.28;;;670.17;;
60973;SDS011;46846;51.528;5.076;2023-12-20T08:04:45;663.43;;;630.47;;
60973;SDS011;46846;51.528;5.076;2023-12-20T08:07:10;697.97;;;663.05;;
60973;SDS011;46846;51.528;5.076;2023-12-20T08:09:36;696.90;;;661.22;;
60973;SDS011;46846;51.528;5.076;2023-12-20T08:12:01;675.47;;;640.90;;
60973;SDS011;46846;51.528;5.076;2023-12-20T08:14:27;691.92;;;656.60;;
60973;SDS011;46846;51.528;5.076;2023-12-20T08:16:53;651.70;;;619.28;;
60973;SDS011;46846;51.528;5.076;2023-12-20T08:19:18;676.55;;;642.25;;
60973;SDS011;46846;51.528;5.076;2023-12-20T08:21:44;665.92;;;632.42;;
60973;SDS011;46846;51.528;5.076;2023-12-20T08:24:09;701.78;;;666.42;;
60973;SDS011;46846;51.528;5.076;2023-12-20T08:26:34;698.47;;;662.70;;
60973;SDS011;46846;51.528;5.076;2023-12-20T08:29:00;704.25;;;668.22;;
60973;SDS011;46846;51.528;5.076;2023-12-20T08:31:25;666.40;;;632.95;;
60973;SDS011;46846;51.528;5.076;2023-12-20T08:33:51;684.60;;;649.63;;
60973;SDS011;46846;51.528;5.076;2023-12-20T08:36:18;701.53;;;665.78;;
60973;SDS011;46846;51.528;5.076;2023-12-20T08:38:46;685.65;;;651.35;;
60973;SDS011;46846;51.528;5.076;2023-12-20T08:41:11;658.28;;;624.90;;
60973;SDS011;46846;51.528;5.076;2023-12-20T08:43:37;692.42;;;657.08;;
60973;SDS011;46846;51.528;5.076;2023-12-20T08:46:05;668.15;;;634.53;;
60973;SDS011;46846;51.528;5.076;2023-12-20T08:48:30;691.75;;;656.85;;
60973;SDS011;46846;51.528;5.076;2023-12-20T08:50:55;666.50;;;632.85;;
60973;SDS011;46846;51.528;5.076;2023-12-20T08:53:21;671.83;;;637.88;;
60973;SDS011;46846;51.528;5.076;2023-12-20T08:55:46;690.40;;;655.45;;
60973;SDS011;46846;51.528;5.076;2023-12-20T08:58:12;692.10;;;657.17;;
60973;SDS011;46846;51.528;5.076;2023-12-20T09:00:37;661.58;;;628.55;;
60973;SDS011;46846;51.528;5.076;2023-12-20T09:05:29;628.63;;;597.60;;
60973;SDS011;46846;51.528;5.076;2023-12-20T09:07:55;639.15;;;607.28;;
60973;SDS011;46846;51.528;5.076;2023-12-20T09:10:20;654.08;;;620.97;;
60973;SDS011;46846;51.528;5.076;2023-12-20T09:12:50;684.50;;;650.20;;
60973;SDS011;46846;51.528;5.076;2023-12-20T09:15:17;653.35;;;620.65;;
60973;SDS011;46846;51.528;5.076;2023-12-20T09:17:42;669.97;;;635.80;;
60973;SDS011;46846;51.528;5.076;2023-12-20T09:20:09;657.58;;;624.30;;
60973;SDS011;46846;51.528;5.076;2023-12-20T09:22:34;699.08;;;663.50;;
60973;SDS011;46846;51.528;5.076;2023-12-20T09:25:00;697.28;;;659.85;;
60973;SDS011;46846;51.528;5.076;2023-12-20T09:27:26;692.45;;;657.85;;
60973;SDS011;46846;51.528;5.076;2023-12-20T09:29:52;663.80;;;630.83;;
60973;SDS011;46846;51.528;5.076;2023-12-20T09:32:18;675.75;;;640.13;;
60973;SDS011;46846;51.528;5.076;2023-12-20T09:34:45;669.05;;;635.60;;
60973;SDS011;46846;51.528;5.076;2023-12-20T09:37:11;694.20;;;659.40;;
60973;SDS011;46846;51.528;5.076;2023-12-20T09:39:36;668.97;;;634.80;;
60973;SDS011;46846;51.528;5.076;2023-12-20T09:42:05;673.78;;;640.00;;
60973;SDS011;46846;51.528;5.076;2023-12-20T09:44:31;671.05;;;636.90;;
60973;SDS011;46846;51.528;5.076;2023-12-20T09:47:02;670.90;;;636.80;;
60973;SDS011;46846;51.528;5.076;2023-12-20T09:49:28;674.05;;;639.47;;
60973;SDS011;46846;51.528;5.076;2023-12-20T09:51:55;677.28;;;642.60;;
60973;SDS011;46846;51.528;5.076;2023-12-20T09:56:47;655.95;;;623.15;;
60973;SDS011;46846;51.528;5.076;2023-12-20T09:59:13;672.20;;;636.97;;
60973;SDS011;46846;51.528;5.076;2023-12-20T10:01:42;692.30;;;656.47;;
60973;SDS011;46846;51.528;5.076;2023-12-20T10:04:08;702.40;;;666.92;;
60973;SDS011;46846;51.528;5.076;2023-12-20T10:06:40;665.28;;;631.47;;
60973;SDS011;46846;51.528;5.076;2023-12-20T10:09:09;676.75;;;642.70;;
60973;SDS011;46846;51.528;5.076;2023-12-20T10:11:36;675.72;;;642.08;;
60973;SDS011;46846;51.528;5.076;2023-12-20T10:14:03;677.50;;;643.58;;
60973;SDS011;46846;51.528;5.076;2023-12-20T10:16:29;674.63;;;640.85;;
60973;SDS011;46846;51.528;5.076;2023-12-20T10:18:55;675.03;;;641.05;;
60973;SDS011;46846;51.528;5.076;2023-12-20T10:23:51;685.72;;;651.45;;
60973;SDS011;46846;51.528;5.076;2023-12-20T10:26:21;674.30;;;639.70;;
60973;SDS011;46846;51.528;5.076;2023-12-20T10:28:53;670.95;;;636.47;;
60973;SDS011;46846;51.528;5.076;2023-12-20T10:31:53;659.42;;;626.60;;
60973;SDS011;46846;51.528;5.076;2023-12-20T10:34:11;654.30;;;621.03;;
60973;SDS011;46846;51.528;5.076;2023-12-20T10:36:36;691.67;;;657.15;;
60973;SDS011;46846;51.528;5.076;2023-12-20T10:39:02;652.38;;;620.00;;
60973;SDS011;46846;51.528;5.076;2023-12-20T10:41:31;675.20;;;640.88;;
60973;SDS011;46846;51.528;5.076;2023-12-20T10:44:01;679.30;;;645.35;;
60973;SDS011;46846;51.528;5.076;2023-12-20T10:46:28;658.58;;;625.65;;
60973;SDS011;46846;51.528;5.076;2023-12-20T10:48:55;672.47;;;638.95;;
60973;SDS011;46846;51.528;5.076;2023-12-20T10:51:22;681.88;;;646.75;;
60973;SDS011;46846;51.528;5.076;2023-12-20T10:53:49;662.95;;;628.78;;
60973;SDS011;46846;51.528;5.076;2023-12-20T10:56:19;663.83;;;630.80;;
60973;SDS011;46846;51.528;5.076;2023-12-20T10:58:46;673.38;;;637.72;;
60973;SDS011;46846;51.528;5.076;2023-12-20T11:01:12;657.50;;;623.95;;
60973;SDS011;46846;51.528;5.076;2023-12-20T11:03:41;689.42;;;654.50;;
60973;SDS011;46846;51.528;5.076;2023-12-20T11:14:53;663.35;;;629.85;;
60973;SDS011;46846;51.528;5.076;2023-12-20T11:17:22;677.53;;;642.22;;
60973;SDS011;46846;51.528;5.076;2023-12-20T11:22:17;656.38;;;623.30;;
60973;SDS011;46846;51.528;5.076;2023-12-20T11:24:44;672.80;;;638.50;;
60973;SDS011;46846;51.528;5.076;2023-12-20T11:27:10;669.72;;;636.33;;
60973;SDS011;46846;51.528;5.076;2023-12-20T11:29:35;665.80;;;632.78;;
60973;SDS011;46846;51.528;5.076;2023-12-20T11:32:43;657.28;;;623.40;;
60973;SDS011;46846;51.528;5.076;2023-12-20T11:34:59;644.30;;;612.22;;
60973;SDS011;46846;51.528;5.076;2023-12-20T11:37:30;657.47;;;624.08;;
60973;SDS011;46846;51.528;5.076;2023-12-20T11:42:38;675.72;;;641.42;;
60973;SDS011;46846;51.528;5.076;2023-12-20T11:45:04;660.97;;;628.03;;
60973;SDS011;46846;51.528;5.076;2023-12-20T11:47:31;648.80;;;614.45;;
60973;SDS011;46846;51.528;5.076;2023-12-20T11:49:57;676.15;;;641.55;;
60973;SDS011;46846;51.528;5.076;2023-12-20T11:52:22;647.85;;;615.33;;
60973;SDS011;46846;51.528;5.076;2023-12-20T11:54:47;687.92;;;653.35;;
60973;SDS011;46846;51.528;5.076;2023-12-20T11:57:13;702.20;;;666.90;;
60973;SDS011;46846;51.528;5.076;2023-12-20T11:59:39;702.92;;;666.47;;
60973;SDS011;46846;51.528;5.076;2023-12-20T12:02:04;702.63;;;667.35;;
60973;SDS011;46846;51.528;5.076;2023-12-20T12:04:30;668.30;;;634.30;;
60973;SDS011;46846;51.528;5.076;2023-12-20T12:06:56;680.78;;;645.45;;
60973;SDS011;46846;51.528;5.076;2023-12-20T12:09:21;659.75;;;626.47;;
60973;SDS011;46846;51.528;5.076;2023-12-20T12:11:46;704.63;;;669.15;;
60973;SDS011;46846;51.528;5.076;2023-12-20T12:14:12;680.90;;;646.25;;
60973;SDS011;46846;51.528;5.076;2023-12-20T12:16:37;681.58;;;646.67;;
60973;SDS011;46846;51.528;5.076;2023-12-20T12:19:03;702.28;;;666.28;;
60973;SDS011;46846;51.528;5.076;2023-12-20T12:23:54;683.38;;;649.00;;
60973;SDS011;46846;51.528;5.076;2023-12-20T12:26:31;703.08;;;667.63;;
60973;SDS011;46846;51.528;5.076;2023-12-20T12:28:56;704.30;;;668.58;;
60973;SDS011;46846;51.528;5.076;2023-12-20T12:31:22;704.67;;;668.70;;
60973;SDS011;46846;51.528;5.076;2023-12-20T12:33:50;698.60;;;662.40;;
60973;SDS011;46846;51.528;5.076;2023-12-20T12:36:16;677.88;;;643.72;;
60973;SDS011;46846;51.528;5.076;2023-12-20T12:38:42;708.17;;;672.17;;
60973;SDS011;46846;51.528;5.076;2023-12-20T12:41:08;692.92;;;657.65;;
60973;SDS011;46846;51.528;5.076;2023-12-20T12:43:35;701.92;;;665.63;;
60973;SDS011;46846;51.528;5.076;2023-12-20T12:46:00;713.28;;;676.90;;
60973;SDS011;46846;51.528;5.076;2023-12-20T12:50:53;676.35;;;641.72;;
60973;SDS011;46846;51.528;5.076;2023-12-20T12:53:19;676.25;;;642.28;;
60973;SDS011;46846;51.528;5.076;2023-12-20T12:55:45;632.28;;;600.38;;
60973;SDS011;46846;51.528;5.076;2023-12-20T13:00:36;626.65;;;595.85;;
60973;SDS011;46846;51.528;5.076;2023-12-20T13:03:01;635.47;;;604.08;;
60973;SDS011;46846;51.528;5.076;2023-12-20T13:05:27;611.33;;;580.97;;
60973;SDS011;46846;51.528;5.076;2023-12-20T13:07:53;654.15;;;621.47;;
60973;SDS011;46846;51.528;5.076;2023-12-20T13:10:18;619.88;;;589.17;;
60973;SDS011;46846;51.528;5.076;2023-12-20T13:12:43;636.55;;;604.75;;
60973;SDS011;46846;51.528;5.076;2023-12-20T13:15:09;685.63;;;650.60;;
60973;SDS011;46846;51.528;5.076;2023-12-20T13:17:34;698.30;;;662.65;;
60973;SDS011;46846;51.528;5.076;2023-12-20T13:22:25;659.33;;;626.70;;
60973;SDS011;46846;51.528;5.076;2023-12-20T13:24:50;656.38;;;623.72;;
60973;SDS011;46846;51.528;5.076;2023-12-20T13:27:16;664.58;;;630.53;;
60973;SDS011;46846;51.528;5.076;2023-12-20T13:29:41;616.97;;;586.45;;
60973;SDS011;46846;51.528;5.076;2023-12-20T13:32:07;625.20;;;594.45;;
60973;SDS011;46846;51.528;5.076;2023-12-20T13:34:32;616.45;;;585.30;;
60973;SDS011;46846;51.528;5.076;2023-12-20T13:36:57;636.38;;;605.00;;
60973;SDS011;46846;51.528;5.076;2023-12-20T13:39:23;625.28;;;594.50;;
60973;SDS011;46846;51.528;5.076;2023-12-20T13:41:48;604.20;;;573.83;;
60973;SDS011;46846;51.528;5.076;2023-12-20T13:44:14;635.25;;;603.75;;
60973;SDS011;46846;51.528;5.076;2023-12-20T13:46:42;606.45;;;576.42;;
60973;SDS011;46846;51.528;5.076;2023-12-20T13:49:08;597.08;;;566.72;;
60973;SDS011;46846;51.528;5.076;2023-12-20T13:51:33;635.47;;;602.85;;
60973;SDS011;46846;51.528;5.076;2023-12-20T13:53:58;647.05;;;615.10;;
60973;SDS011;46846;51.528;5.076;2023-12-20T14:01:15;616.10;;;585.78;;
60973;SDS011;46846;51.528;5.076;2023-12-20T14:03:41;627.55;;;596.70;;
60973;SDS011;46846;51.528;5.076;2023-12-20T14:06:07;656.30;;;623.53;;
60973;SDS011;46846;51.528;5.076;2023-12-20T14:08:32;653.08;;;620.15;;
60973;SDS011;46846;51.528;5.076;2023-12-20T14:10:57;640.05;;;607.85;;
60973;SDS011;46846;51.528;5.076;2023-12-20T14:13:23;627.00;;;596.25;;
60973;SDS011;46846;51.528;5.076;2023-12-20T14:15:48;659.10;;;625.40;;
60973;SDS011;46846;51.528;5.076;2023-12-20T14:18:14;651.53;;;618.70;;
60973;SDS011;46846;51.528;5.076;2023-12-20T14:20:40;656.00;;;623.50;;
60973;SDS011;46846;51.528;5.076;2023-12-20T14:23:07;644.97;;;612.65;;
60973;SDS011;46846;51.528;5.076;2023-12-20T14:25:34;694.03;;;657.42;;
60973;SDS011;46846;51.528;5.076;2023-12-20T14:28:02;674.65;;;639.72;;
60973;SDS011;46846;51.528;5.076;2023-12-20T14:32:53;628.63;;;597.25;;
60973;SDS011;46846;51.528;5.076;2023-12-20T14:35:19;676.60;;;642.10;;
60973;SDS011;46846;51.528;5.076;2023-12-20T14:37:44;649.60;;;617.17;;
60973;SDS011;46846;51.528;5.076;2023-12-20T14:40:10;647.65;;;615.28;;
60973;SDS011;46846;51.528;5.076;2023-12-20T14:42:40;638.15;;;606.53;;
60973;SDS011;46846;51.528;5.076;2023-12-20T14:45:06;686.08;;;650.53;;
60973;SDS011;46846;51.528;5.076;2023-12-20T14:47:32;691.15;;;655.60;;
60973;SDS011;46846;51.528;5.076;2023-12-20T14:49:57;672.03;;;637.97;;
60973;SDS011;46846;51.528;5.076;2023-12-20T14:52:23;695.08;;;659.72;;
60973;SDS011;46846;51.528;5.076;2023-12-20T14:54:48;684.85;;;650.10;;
60973;SDS011;46846;51.528;5.076;2023-12-20T14:57:14;697.47;;;661.58;;
60973;SDS011;46846;51.528;5.076;2023-12-20T14:59:39;694.50;;;659.67;;
60973;SDS011;46846;51.528;5.076;2023-12-20T15:02:04;691.30;;;656.38;;
60973;SDS011;46846;51.528;5.076;2023-12-20T15:04:31;671.75;;;637.40;;
60973;SDS011;46846;51.528;5.076;2023-12-20T15:06:56;684.83;;;649.95;;
60973;SDS011;46846;51.528;5.076;2023-12-20T15:09:22;677.97;;;643.90;;
60973;SDS011;46846;51.528;5.076;2023-12-20T15:11:48;703.00;;;667.42;;
60973;SDS011;46846;51.528;5.076;2023-12-20T15:14:13;694.65;;;659.47;;
60973;SDS011;46846;51.528;5.076;2023-12-20T15:16:44;686.47;;;651.78;;
60973;SDS011;46846;51.528;5.076;2023-12-20T15:19:11;697.10;;;660.78;;
60973;SDS011;46846;51.528;5.076;2023-12-20T15:21:36;674.15;;;640.17;;
60973;SDS011;46846;51.528;5.076;2023-12-20T15:24:06;688.05;;;653.30;;
60973;SDS011;46846;51.528;5.076;2023-12-20T15:26:38;678.78;;;644.05;;
60973;SDS011;46846;51.528;5.076;2023-12-20T15:29:04;694.38;;;659.42;;